Station: Tasman Island  

  Atmospheric Gas Attenuation - ITU Rec 676-11   ----------------- dB/100km -----------------
Date Time Temp RH % AH g/m3 Dew Point Wind Direction Speed kph Gust kph Barometer mB Rainfall Since 9am 24GHz 47GHz 76GHz 122GHz 134GHz 241GHz
09/05 12:10 13.2 82 9.42 10.2 20 33 1020.7 0 21.4 27.7 43.8 115.1 110.9 382.1
09/05 12:00 13.3 81 9.36 10.1 13 35 1020.8 0 21.2 27.6 43.5 114.3 110.0 378.8
09/05 11:50 13.3 80 9.24 9.9 7 19 1020.9 0 21.0 27.4 43.0 112.9 108.3 373.1
09/05 11:40 13.1 78 8.9 9.3 11 20 1020.9 0 20.3 26.9 41.7 109.5 104.0 357.8
09/05 11:30 13 77 8.73 9.1 13 33 1021 0 19.9 26.6 41.1 107.8 101.8 350.2
09/05 11:20 12.8 78 8.74 9 19 33 1021 0 19.9 26.7 41.2 108.1 102.2 351.6
09/05 11:10 12.8 76 8.51 8.8 11 32 1021 0 19.4 26.3 40.3 105.6 99.1 340.8
09/05 11:00 12.7 76 8.46 8.6 9 33 1021 0 19.3 26.3 40.1 105.2 98.6 338.8
09/05 10:50 12.6 74 8.19 8.1 9 20 1020.9 0 18.8 25.9 39.1 102.4 95.1 326.6
09/05 10:40 12.5 74 8.14 8 7 20 1020.9 0 18.7 25.8 38.9 102.0 94.5 324.7
09/05 10:30 12.5 75 8.25 8.2 11 33 1020.9 0 18.9 26.0 39.4 103.2 96.0 329.8
09/05 10:20 12.4 76 8.3 8.3 15 33 1020.9 0 19.0 26.1 39.6 103.9 96.8 332.6
09/05 10:10 12.4 75 8.2 8.1 13 37 1020.8 0 18.8 25.9 39.2 102.8 95.5 327.9
09/05 10:00 12.4 75 8.2 8.1 11 35 1020.8 0 18.8 25.9 39.2 102.8 95.5 327.9
09/05 09:50 12.4 76 8.3 8.4 13 26 1020.7 0 19.0 26.1 39.6 103.8 96.8 332.5
09/05 09:40 12.6 79 8.74 9 6 7 1020.8 0 19.9 26.8 41.3 108.4 102.5 352.5
09/05 09:30 12.5 77 8.47 8.6 9 22 1020.7 0 19.4 26.3 40.3 105.6 98.9 340.1
09/05 09:20 12.4 74 8.09 7.9 11 37 1020.5 0 18.6 25.7 38.8 101.6 94.0 322.7
09/05 09:10 12.3 76 8.25 8.2 6 11 1020.6 0 18.9 26.0 39.5 103.4 96.2 330.6
09/05 09:00 12.2 78 8.42 8.5 9 39 1020.6 0 19.3 26.3 40.2 105.4 98.6 339.0
09/05 08:50 12.1 78 8.37 8.5 13 37 1020.6 0.4 19.2 26.3 40.1 105.0 98.1 337.1
09/05 08:40 12.3 80 8.69 8.9 9 17 1020.3 0.4 19.8 26.8 41.3 108.2 102.1 351.3
09/05 08:30 12 83 8.85 9.2 11 35 1020.2 0.4 20.2 27.1 42.1 110.4 104.7 360.3
09/05 08:20 12.4 83 9.07 9.7 6 11 1020.3 0.4 20.7 27.4 42.8 112.3 107.2 369.0
09/05 08:10 12.3 83 9.01 9.5 11 20 1020.1 0.4 20.5 27.3 42.6 111.7 106.5 366.5
09/05 08:00 12.1 84 9.01 9.5 7 22 1020 0.4 20.5 27.3 42.7 112.0 106.8 367.5
09/05 07:50 11.9 85 9 9.4 6 7 1019.7 0.4 20.5 27.4 42.7 112.2 106.9 367.8
09/05 07:40 11.8 87 9.16 9.7 11 28 1019.7 0.4 20.9 27.7 43.5 114.1 109.2 376.1
09/05 07:30 11.7 87 9.1 9.6 13 35 1019.6 0.4 20.8 27.6 43.3 113.6 108.5 373.6
09/05 07:20 11.7 89 9.31 9.9 32 44 1019.5 0.4 21.2 28.0 44.1 115.9 111.5 383.8
09/05 07:10 11.8 89 9.37 10 22 30 1019.3 0.4 21.3 28.0 44.3 116.4 112.1 386.2
09/05 07:00 11.7 88 9.21 9.8 19 41 1019.2 0.4 21.0 27.8 43.7 114.8 110.0 378.8
09/05 06:50 11.9 85 9 9.4 13 28 1019.3 0.4 20.5 27.4 42.7 112.1 106.8 367.7
09/05 06:40 11.8 86 9.05 9.5 9 28 1019.3 0.4 20.6 27.5 43.0 112.8 107.7 370.6
09/05 06:30 11.7 84 8.79 9.1 11 32 1019.1 0.4 20.1 27.1 41.9 110.0 104.2 358.5
09/05 06:20 11.6 82 8.52 8.6 11 22 1019 0.4 19.5 26.6 40.9 107.2 100.6 345.9
09/05 06:10 11.7 81 8.47 8.5 13 30 1018.8 0.4 19.4 26.5 40.6 106.4 99.8 343.1
09/05 06:00 11.6 82 8.52 8.6 9 26 1018.8 0.4 19.5 26.6 40.8 107.1 100.6 345.9
09/05 05:50 11.6 81 8.42 8.4 7 17 1018.8 0.4 19.3 26.5 40.4 106.0 99.3 341.1
09/05 05:40 11.7 82 8.58 8.7 13 24 1018.7 0.4 19.6 26.7 41.0 107.6 101.3 348.3
09/05 05:30 11.7 80 8.37 8.4 9 30 1018.5 0.4 19.2 26.3 40.2 105.3 98.4 338.2
09/05 05:20 11.7 79 8.26 8.3 11 22 1018.4 0.4 19.0 26.1 39.7 104.1 96.9 333.0
09/05 05:10 11.8 80 8.42 8.4 13 20 1018.3 0.4 19.3 26.4 40.3 105.7 99.0 340.1
09/05 05:00 11.7 79 8.26 8.2 11 32 1018.1 0.4 19.0 26.1 39.7 104.1 96.9 332.9
09/05 04:50 11.7 79 8.26 8.3 6 19 1017.9 0.4 19.0 26.1 39.7 104.0 96.9 332.9
09/05 04:40 11.7 79 8.26 8.3 6 13 1017.8 0.4 19.0 26.1 39.7 104.0 96.9 332.8
09/05 04:30 11.7 79 8.26 8.2 11 37 1017.7 0.4 19.0 26.1 39.7 104.0 96.9 332.8
09/05 04:20 11.8 78 8.21 8.2 7 20 1017.8 0.4 18.8 26.0 39.4 103.4 96.1 330.1
09/05 04:10 11.8 80 8.42 8.4 19 33 1017.7 0.4 19.3 26.4 40.3 105.6 98.9 340.0
09/05 04:00 11.7 79 8.26 8.2 9 30 1017.8 0.4 19.0 26.1 39.7 104.0 96.9 332.8
09/05 03:50 11.8 78 8.21 8.2 7 32 1017.7 0.4 18.8 26.0 39.4 103.3 96.1 330.0
09/05 03:40 11.7 79 8.26 8.3 6 13 1017.5 0.4 19.0 26.1 39.7 104.0 96.9 332.8
09/05 03:30 11.6 80 8.32 8.3 9 32 1017.3 0.4 19.1 26.2 39.9 104.8 97.8 336.0
09/05 03:20 11.5 81 8.37 8.3 20 32 1017.4 0.4 19.2 26.4 40.2 105.5 98.6 338.8
09/05 03:10 11.6 79 8.21 8.2 7 28 1017.3 0.4 18.9 26.1 39.5 103.6 96.3 330.8
09/05 03:00 11.5 80 8.26 8.2 11 37 1017.2 0.4 19.0 26.2 39.7 104.2 97.1 333.5
09/05 02:50 11.5 79 8.16 8.1 9 26 1017.1 0.4 18.8 26.0 39.3 103.1 95.7 328.8
09/05 02:40 11.5 81 8.37 8.3 15 30 1017.2 0.4 19.2 26.3 40.2 105.4 98.6 338.7
09/05 02:30 11.4 80 8.21 8.1 11 41 1017.3 0.4 18.9 26.1 39.6 103.8 96.5 331.6
09/05 02:20 11.3 81 8.26 8.1 4 11 1017.3 0.4 19.0 26.2 39.9 104.5 97.3 334.4
09/05 02:10 11.3 82 8.37 8.3 13 33 1017.3 0.4 19.2 26.4 40.3 105.7 98.8 339.6
09/05 02:00 11.2 81 8.21 8.1 11 32 1017.4 0.4 18.9 26.2 39.7 104.1 96.8 332.5
09/05 01:50 11.2 79 8.01 7.8 17 32 1017.5 0.4 18.4 25.8 38.9 101.9 94.1 323.1
09/05 01:40 11.2 79 8.01 7.7 9 19 1017.5 0.4 18.4 25.8 38.9 101.9 94.1 323.1
09/05 01:30 11 79 7.91 7.5 11 37 1017.5 0.4 18.2 25.7 38.6 101.1 93.0 319.2
09/05 01:20 11 79 7.91 7.5 9 20 1017.5 0.4 18.2 25.7 38.6 101.1 93.0 319.2
09/05 01:10 10.9 78 7.76 7.2 15 33 1017.7 0.4 17.9 25.5 38.0 99.6 91.1 312.6
09/05 01:00 10.8 80 7.91 7.5 11 39 1017.5 0.4 18.2 25.8 38.7 101.4 93.3 320.0
09/05 00:50 10.6 80 7.81 7.4 17 30 1017.4 0.4 18.0 25.7 38.4 100.5 92.1 316.1
09/05 00:40 10.4 80 7.71 7.2 9 26 1017.3 0.4 17.8 25.6 38.0 99.7 91.0 312.2
09/05 00:30 10.4 81 7.81 7.3 9 30 1017.2 0.4 18.1 25.7 38.4 100.8 92.4 316.9
09/05 00:20 10.6 80 7.81 7.3 6 13 1017 0.4 18.0 25.7 38.3 100.5 92.1 316.0
09/05 00:10 10.4 80 7.71 7.1 13 28 1016.9 0.4 17.8 25.6 38.0 99.6 91.0 312.1
09/05 00:00 10.3 81 7.76 7.2 15 37 1017 0.4 18.0 25.7 38.3 100.3 91.8 314.8
08/05 23:50 10.3 80 7.66 7 19 32 1017 0.4 17.7 25.5 37.9 99.2 90.4 310.1
08/05 23:40 10.4 80 7.71 7.2 7 15 1017.2 0.4 17.8 25.6 38.0 99.7 91.0 312.1
08/05 23:30 10.4 81 7.81 7.3 11 33 1017.1 0.4 18.1 25.7 38.4 100.7 92.4 316.8
08/05 23:20 10.4 82 7.9 7.4 7 15 1017.2 0.4 18.2 25.9 38.8 101.7 93.6 321.1
08/05 23:10 10.4 80 7.71 7.2 19 33 1017.3 0.4 17.8 25.6 38.0 99.7 91.0 312.2
08/05 23:00 10.4 83 8 7.6 11 43 1017.5 0.4 18.5 26.1 39.2 102.9 95.0 325.9
08/05 22:50 10.3 84 8.05 7.7 7 15 1017.7 0.4 18.6 26.2 39.5 103.6 95.8 328.8
08/05 22:40 10.3 80 7.66 7.1 11 24 1017.9 0.4 17.7 25.5 37.9 99.3 90.5 310.4
08/05 22:30 10.3 82 7.85 7.4 11 43 1017.9 0.4 18.1 25.9 38.7 101.4 93.1 319.3
08/05 22:20 10.3 82 7.85 7.3 9 20 1017.9 0.4 18.1 25.9 38.7 101.4 93.1 319.3
08/05 22:10 10.4 82 7.9 7.4 9 24 1017.9 0.4 18.2 25.9 38.8 101.8 93.6 321.3
08/05 22:00 10.4 82 7.9 7.5 17 41 1017.9 0.4 18.2 25.9 38.8 101.8 93.6 321.3
08/05 21:50 11 82 8.21 8 13 32 1017.5 0.4 18.9 26.2 39.8 104.4 97.1 333.4
08/05 21:40 10.9 80 7.96 7.6 24 43 1017.4 0.4 18.4 25.8 38.8 101.8 93.8 321.9
08/05 21:30 10.9 82 8.16 8 30 72 1017.3 0.4 18.8 26.2 39.6 103.9 96.5 331.4
08/05 21:20 10.8 80 7.91 7.6 26 44 1017.4 0.4 18.2 25.8 38.7 101.3 93.2 320.0
08/05 21:10 10.9 80 7.96 7.6 39 63 1017.4 0.4 18.4 25.8 38.8 101.8 93.8 321.9
08/05 21:00 10.9 81 8.06 7.8 33 74 1017.2 0.4 18.6 26.0 39.2 102.8 95.1 326.6
08/05 20:50 10.9 80 7.96 7.7 32 63 1016.9 0.4 18.4 25.8 38.8 101.7 93.8 321.8
08/05 20:40 10.9 80 7.96 7.7 32 57 1016.9 0.4 18.4 25.8 38.8 101.7 93.8 321.8
08/05 20:30 10.8 83 8.21 8 30 61 1016.9 0.4 18.9 26.3 39.9 104.6 97.3 334.1
08/05 20:20 10.7 86 8.45 8.4 35 59 1016.9 0.4 19.4 26.7 40.9 107.4 100.7 346.0
08/05 20:10 10.8 83 8.21 8 22 39 1016.7 0.4 18.9 26.3 39.9 104.6 97.2 334.0
08/05 20:00 10.7 79 7.76 7.2 28 65 1016.7 0.4 17.9 25.6 38.1 99.8 91.3 313.2
08/05 19:50 10.8 79 7.81 7.3 22 50 1016.8 0.4 18.0 25.6 38.2 100.2 91.9 315.1
08/05 19:40 10.7 75 7.37 6.4 33 54 1016.7 0.4 17.1 24.9 36.5 95.6 86.1 295.0

Last Refresh: 09-May-2026 11:45:02

Bureau of Meteorology